sensor_id;sensor_type;location;lat;lon;timestamp;P1;durP1;ratioP1;P2;durP2;ratioP2
67191;SDS011;54120;53.504;49.426;2023-09-12T00:01:43;37.35;;;15.45;;
67191;SDS011;54120;53.504;49.426;2023-09-12T00:04:09;40.90;;;15.90;;
67191;SDS011;54120;53.504;49.426;2023-09-12T00:06:36;36.88;;;15.85;;
67191;SDS011;54120;53.504;49.426;2023-09-12T00:09:03;38.97;;;16.08;;
67191;SDS011;54120;53.504;49.426;2023-09-12T00:11:32;32.55;;;15.48;;
67191;SDS011;54120;53.504;49.426;2023-09-12T00:13:58;39.20;;;16.30;;
67191;SDS011;54120;53.504;49.426;2023-09-12T00:16:24;36.03;;;14.93;;
67191;SDS011;54120;53.504;49.426;2023-09-12T00:18:50;31.90;;;13.68;;
67191;SDS011;54120;53.504;49.426;2023-09-12T00:21:16;26.65;;;12.88;;
67191;SDS011;54120;53.504;49.426;2023-09-12T00:23:43;26.10;;;12.05;;
67191;SDS011;54120;53.504;49.426;2023-09-12T00:26:09;20.00;;;9.40;;
67191;SDS011;54120;53.504;49.426;2023-09-12T00:28:35;24.27;;;10.75;;
67191;SDS011;54120;53.504;49.426;2023-09-12T00:31:03;19.45;;;8.82;;
67191;SDS011;54120;53.504;49.426;2023-09-12T00:33:29;15.27;;;7.68;;
67191;SDS011;54120;53.504;49.426;2023-09-12T00:35:55;12.10;;;6.20;;
67191;SDS011;54120;53.504;49.426;2023-09-12T00:38:22;12.10;;;6.10;;
67191;SDS011;54120;53.504;49.426;2023-09-12T00:40:48;17.85;;;6.32;;
67191;SDS011;54120;53.504;49.426;2023-09-12T00:43:15;13.23;;;5.80;;
67191;SDS011;54120;53.504;49.426;2023-09-12T00:45:42;13.82;;;5.55;;
67191;SDS011;54120;53.504;49.426;2023-09-12T00:48:08;12.20;;;5.75;;
67191;SDS011;54120;53.504;49.426;2023-09-12T00:50:35;12.48;;;5.63;;
67191;SDS011;54120;53.504;49.426;2023-09-12T00:53:04;8.20;;;5.07;;
67191;SDS011;54120;53.504;49.426;2023-09-12T00:55:31;14.57;;;5.45;;
67191;SDS011;54120;53.504;49.426;2023-09-12T00:57:59;11.57;;;5.68;;
67191;SDS011;54120;53.504;49.426;2023-09-12T01:00:27;14.93;;;5.40;;
67191;SDS011;54120;53.504;49.426;2023-09-12T01:02:54;9.40;;;4.75;;
67191;SDS011;54120;53.504;49.426;2023-09-12T01:05:21;20.92;;;5.82;;
67191;SDS011;54120;53.504;49.426;2023-09-12T01:07:48;12.10;;;6.15;;
67191;SDS011;54120;53.504;49.426;2023-09-12T01:10:15;10.95;;;4.68;;
67191;SDS011;54120;53.504;49.426;2023-09-12T01:12:41;9.73;;;5.15;;
67191;SDS011;54120;53.504;49.426;2023-09-12T01:15:08;12.02;;;5.07;;
67191;SDS011;54120;53.504;49.426;2023-09-12T01:17:40;12.02;;;5.97;;
67191;SDS011;54120;53.504;49.426;2023-09-12T01:20:10;19.10;;;5.78;;
67191;SDS011;54120;53.504;49.426;2023-09-12T01:25:42;17.40;;;5.55;;
67191;SDS011;54120;53.504;49.426;2023-09-12T01:28:23;23.95;;;6.10;;
67191;SDS011;54120;53.504;49.426;2023-09-12T01:30:52;23.77;;;6.13;;
67191;SDS011;54120;53.504;49.426;2023-09-12T01:33:19;15.48;;;6.90;;
67191;SDS011;54120;53.504;49.426;2023-09-12T01:35:46;13.60;;;5.43;;
67191;SDS011;54120;53.504;49.426;2023-09-12T01:38:12;23.05;;;6.50;;
67191;SDS011;54120;53.504;49.426;2023-09-12T01:40:47;32.50;;;7.03;;
67191;SDS011;54120;53.504;49.426;2023-09-12T01:45:41;30.42;;;6.65;;
67191;SDS011;54120;53.504;49.426;2023-09-12T01:48:08;20.17;;;6.82;;
67191;SDS011;54120;53.504;49.426;2023-09-12T01:50:34;31.40;;;7.13;;
67191;SDS011;54120;53.504;49.426;2023-09-12T01:53:02;29.73;;;7.38;;
67191;SDS011;54120;53.504;49.426;2023-09-12T01:55:29;28.90;;;7.35;;
67191;SDS011;54120;53.504;49.426;2023-09-12T01:57:56;24.85;;;7.15;;
67191;SDS011;54120;53.504;49.426;2023-09-12T02:00:23;18.83;;;7.60;;
67191;SDS011;54120;53.504;49.426;2023-09-12T02:02:49;22.05;;;7.35;;
67191;SDS011;54120;53.504;49.426;2023-09-12T02:05:16;16.58;;;6.90;;
67191;SDS011;54120;53.504;49.426;2023-09-12T02:07:44;13.88;;;6.32;;
67191;SDS011;54120;53.504;49.426;2023-09-12T02:10:11;23.17;;;7.13;;
67191;SDS011;54120;53.504;49.426;2023-09-12T02:12:37;19.50;;;9.30;;
67191;SDS011;54120;53.504;49.426;2023-09-12T02:15:04;18.08;;;9.27;;
67191;SDS011;54120;53.504;49.426;2023-09-12T02:17:31;24.88;;;9.77;;
67191;SDS011;54120;53.504;49.426;2023-09-12T02:19:57;18.20;;;8.60;;
67191;SDS011;54120;53.504;49.426;2023-09-12T02:22:23;25.75;;;10.55;;
67191;SDS011;54120;53.504;49.426;2023-09-12T02:24:50;15.93;;;9.35;;
67191;SDS011;54120;53.504;49.426;2023-09-12T02:27:16;24.60;;;10.20;;
67191;SDS011;54120;53.504;49.426;2023-09-12T02:29:43;24.30;;;8.95;;
67191;SDS011;54120;53.504;49.426;2023-09-12T02:32:09;34.28;;;10.48;;
67191;SDS011;54120;53.504;49.426;2023-09-12T02:34:35;35.33;;;9.98;;
67191;SDS011;54120;53.504;49.426;2023-09-12T02:37:01;22.25;;;8.75;;
67191;SDS011;54120;53.504;49.426;2023-09-12T02:39:27;26.35;;;9.40;;
67191;SDS011;54120;53.504;49.426;2023-09-12T02:41:53;20.42;;;8.90;;
67191;SDS011;54120;53.504;49.426;2023-09-12T02:44:20;24.90;;;8.90;;
67191;SDS011;54120;53.504;49.426;2023-09-12T02:46:46;22.30;;;8.82;;
67191;SDS011;54120;53.504;49.426;2023-09-12T02:49:14;28.05;;;9.50;;
67191;SDS011;54120;53.504;49.426;2023-09-12T02:51:40;28.10;;;10.05;;
67191;SDS011;54120;53.504;49.426;2023-09-12T02:54:06;31.70;;;9.10;;
67191;SDS011;54120;53.504;49.426;2023-09-12T02:56:32;29.05;;;9.00;;
67191;SDS011;54120;53.504;49.426;2023-09-12T02:58:58;24.05;;;8.45;;
67191;SDS011;54120;53.504;49.426;2023-09-12T03:01:24;22.45;;;8.68;;
67191;SDS011;54120;53.504;49.426;2023-09-12T03:03:53;24.30;;;9.05;;
67191;SDS011;54120;53.504;49.426;2023-09-12T03:06:19;20.00;;;8.30;;
67191;SDS011;54120;53.504;49.426;2023-09-12T03:08:46;25.25;;;8.32;;
67191;SDS011;54120;53.504;49.426;2023-09-12T03:11:14;17.90;;;8.13;;
67191;SDS011;54120;53.504;49.426;2023-09-12T03:13:41;14.50;;;7.40;;
67191;SDS011;54120;53.504;49.426;2023-09-12T03:16:11;25.73;;;8.50;;
67191;SDS011;54120;53.504;49.426;2023-09-12T03:18:37;15.00;;;7.55;;
67191;SDS011;54120;53.504;49.426;2023-09-12T03:21:04;17.13;;;7.95;;
67191;SDS011;54120;53.504;49.426;2023-09-12T03:23:31;13.38;;;7.82;;
67191;SDS011;54120;53.504;49.426;2023-09-12T03:26:03;17.17;;;8.15;;
67191;SDS011;54120;53.504;49.426;2023-09-12T03:28:31;17.27;;;7.82;;
67191;SDS011;54120;53.504;49.426;2023-09-12T03:31:08;20.92;;;8.02;;
67191;SDS011;54120;53.504;49.426;2023-09-12T03:33:39;11.32;;;7.65;;
67191;SDS011;54120;53.504;49.426;2023-09-12T03:36:07;16.95;;;8.00;;
67191;SDS011;54120;53.504;49.426;2023-09-12T03:38:34;18.27;;;7.70;;
67191;SDS011;54120;53.504;49.426;2023-09-12T03:41:00;14.43;;;7.22;;
67191;SDS011;54120;53.504;49.426;2023-09-12T03:43:27;14.38;;;7.40;;
67191;SDS011;54120;53.504;49.426;2023-09-12T03:45:53;13.73;;;6.65;;
67191;SDS011;54120;53.504;49.426;2023-09-12T03:48:19;13.05;;;6.43;;
67191;SDS011;54120;53.504;49.426;2023-09-12T03:50:45;17.73;;;6.53;;
67191;SDS011;54120;53.504;49.426;2023-09-12T03:53:13;14.55;;;6.10;;
67191;SDS011;54120;53.504;49.426;2023-09-12T03:55:40;15.23;;;6.10;;
67191;SDS011;54120;53.504;49.426;2023-09-12T03:58:07;11.43;;;5.45;;
67191;SDS011;54120;53.504;49.426;2023-09-12T04:00:33;11.57;;;5.55;;
67191;SDS011;54120;53.504;49.426;2023-09-12T04:02:59;7.05;;;5.05;;
67191;SDS011;54120;53.504;49.426;2023-09-12T04:05:26;9.68;;;5.15;;
67191;SDS011;54120;53.504;49.426;2023-09-12T04:07:52;7.43;;;5.20;;
67191;SDS011;54120;53.504;49.426;2023-09-12T04:10:19;6.97;;;5.03;;
67191;SDS011;54120;53.504;49.426;2023-09-12T04:12:46;10.63;;;5.95;;
67191;SDS011;54120;53.504;49.426;2023-09-12T04:15:17;7.20;;;5.10;;
67191;SDS011;54120;53.504;49.426;2023-09-12T04:17:43;8.10;;;5.70;;
67191;SDS011;54120;53.504;49.426;2023-09-12T04:20:09;9.63;;;5.78;;
67191;SDS011;54120;53.504;49.426;2023-09-12T04:22:39;6.07;;;5.32;;
67191;SDS011;54120;53.504;49.426;2023-09-12T04:25:08;10.02;;;5.50;;
67191;SDS011;54120;53.504;49.426;2023-09-12T04:27:35;9.90;;;5.07;;
67191;SDS011;54120;53.504;49.426;2023-09-12T04:30:02;5.32;;;4.82;;
67191;SDS011;54120;53.504;49.426;2023-09-12T04:32:29;10.52;;;5.57;;
67191;SDS011;54120;53.504;49.426;2023-09-12T04:34:55;4.13;;;3.72;;
67191;SDS011;54120;53.504;49.426;2023-09-12T04:37:21;4.53;;;4.10;;
67191;SDS011;54120;53.504;49.426;2023-09-12T04:39:48;13.40;;;4.53;;
67191;SDS011;54120;53.504;49.426;2023-09-12T04:42:14;8.85;;;4.45;;
67191;SDS011;54120;53.504;49.426;2023-09-12T04:44:41;9.73;;;4.72;;
67191;SDS011;54120;53.504;49.426;2023-09-12T04:47:09;7.80;;;4.80;;
67191;SDS011;54120;53.504;49.426;2023-09-12T04:49:35;10.18;;;4.53;;
67191;SDS011;54120;53.504;49.426;2023-09-12T04:52:02;9.23;;;4.45;;
67191;SDS011;54120;53.504;49.426;2023-09-12T04:54:29;7.45;;;4.90;;
67191;SDS011;54120;53.504;49.426;2023-09-12T04:56:55;13.98;;;6.07;;
67191;SDS011;54120;53.504;49.426;2023-09-12T04:59:22;17.80;;;7.57;;
67191;SDS011;54120;53.504;49.426;2023-09-12T05:01:48;18.30;;;7.18;;
67191;SDS011;54120;53.504;49.426;2023-09-12T05:04:16;12.93;;;6.55;;
67191;SDS011;54120;53.504;49.426;2023-09-12T05:06:44;16.02;;;6.80;;
67191;SDS011;54120;53.504;49.426;2023-09-12T05:09:10;11.73;;;5.53;;
67191;SDS011;54120;53.504;49.426;2023-09-12T05:11:37;10.15;;;5.63;;
67191;SDS011;54120;53.504;49.426;2023-09-12T05:14:04;9.98;;;4.93;;
67191;SDS011;54120;53.504;49.426;2023-09-12T05:16:30;8.68;;;4.70;;
67191;SDS011;54120;53.504;49.426;2023-09-12T05:18:56;7.18;;;4.88;;
67191;SDS011;54120;53.504;49.426;2023-09-12T05:21:23;5.57;;;4.55;;
67191;SDS011;54120;53.504;49.426;2023-09-12T05:23:49;10.80;;;4.63;;
67191;SDS011;54120;53.504;49.426;2023-09-12T05:26:16;6.45;;;4.63;;
67191;SDS011;54120;53.504;49.426;2023-09-12T05:28:43;9.68;;;4.13;;
67191;SDS011;54120;53.504;49.426;2023-09-12T05:31:09;7.22;;;4.50;;
67191;SDS011;54120;53.504;49.426;2023-09-12T05:33:35;4.35;;;3.95;;
67191;SDS011;54120;53.504;49.426;2023-09-12T05:36:01;7.05;;;4.00;;
67191;SDS011;54120;53.504;49.426;2023-09-12T05:38:28;5.45;;;3.88;;
67191;SDS011;54120;53.504;49.426;2023-09-12T05:40:54;4.38;;;3.78;;
67191;SDS011;54120;53.504;49.426;2023-09-12T05:43:20;4.55;;;4.10;;
67191;SDS011;54120;53.504;49.426;2023-09-12T05:45:46;7.32;;;4.28;;
67191;SDS011;54120;53.504;49.426;2023-09-12T05:48:13;6.38;;;4.20;;
67191;SDS011;54120;53.504;49.426;2023-09-12T05:50:39;5.45;;;4.10;;
67191;SDS011;54120;53.504;49.426;2023-09-12T05:53:05;5.55;;;4.75;;
67191;SDS011;54120;53.504;49.426;2023-09-12T05:55:34;5.35;;;4.70;;
67191;SDS011;54120;53.504;49.426;2023-09-12T05:58:00;6.50;;;4.47;;
67191;SDS011;54120;53.504;49.426;2023-09-12T06:00:26;5.00;;;4.35;;
67191;SDS011;54120;53.504;49.426;2023-09-12T06:02:52;7.75;;;4.28;;
67191;SDS011;54120;53.504;49.426;2023-09-12T06:05:18;8.73;;;4.07;;
67191;SDS011;54120;53.504;49.426;2023-09-12T06:07:45;5.47;;;3.90;;
67191;SDS011;54120;53.504;49.426;2023-09-12T06:10:17;4.53;;;3.70;;
67191;SDS011;54120;53.504;49.426;2023-09-12T06:12:43;4.97;;;3.50;;
67191;SDS011;54120;53.504;49.426;2023-09-12T06:15:09;5.30;;;3.53;;
67191;SDS011;54120;53.504;49.426;2023-09-12T06:17:36;6.15;;;3.70;;
67191;SDS011;54120;53.504;49.426;2023-09-12T06:20:04;3.60;;;3.30;;
67191;SDS011;54120;53.504;49.426;2023-09-12T06:22:33;6.80;;;3.30;;
67191;SDS011;54120;53.504;49.426;2023-09-12T06:25:02;11.88;;;4.43;;
67191;SDS011;54120;53.504;49.426;2023-09-12T06:27:29;7.55;;;3.97;;
67191;SDS011;54120;53.504;49.426;2023-09-12T06:29:57;5.70;;;3.67;;
67191;SDS011;54120;53.504;49.426;2023-09-12T06:32:24;8.63;;;5.07;;
67191;SDS011;54120;53.504;49.426;2023-09-12T06:34:50;16.17;;;6.80;;
67191;SDS011;54120;53.504;49.426;2023-09-12T06:37:16;11.85;;;7.22;;
67191;SDS011;54120;53.504;49.426;2023-09-12T06:39:42;11.48;;;6.50;;
67191;SDS011;54120;53.504;49.426;2023-09-12T06:42:09;11.07;;;6.13;;
67191;SDS011;54120;53.504;49.426;2023-09-12T06:44:35;14.13;;;9.13;;
67191;SDS011;54120;53.504;49.426;2023-09-12T06:47:03;10.70;;;6.35;;
67191;SDS011;54120;53.504;49.426;2023-09-12T06:49:30;17.63;;;8.45;;
67191;SDS011;54120;53.504;49.426;2023-09-12T06:51:57;11.90;;;5.55;;
67191;SDS011;54120;53.504;49.426;2023-09-12T06:54:24;16.30;;;8.23;;
67191;SDS011;54120;53.504;49.426;2023-09-12T06:56:50;11.07;;;7.68;;
67191;SDS011;54120;53.504;49.426;2023-09-12T06:59:16;10.82;;;6.18;;
67191;SDS011;54120;53.504;49.426;2023-09-12T07:01:42;18.08;;;8.10;;
67191;SDS011;54120;53.504;49.426;2023-09-12T07:04:09;12.95;;;7.20;;
67191;SDS011;54120;53.504;49.426;2023-09-12T07:06:35;9.95;;;6.13;;
67191;SDS011;54120;53.504;49.426;2023-09-12T07:09:01;9.45;;;6.05;;
67191;SDS011;54120;53.504;49.426;2023-09-12T07:11:28;5.13;;;4.20;;
67191;SDS011;54120;53.504;49.426;2023-09-12T07:13:54;7.35;;;5.03;;
67191;SDS011;54120;53.504;49.426;2023-09-12T07:16:20;9.57;;;5.90;;
67191;SDS011;54120;53.504;49.426;2023-09-12T07:18:47;9.73;;;6.40;;
67191;SDS011;54120;53.504;49.426;2023-09-12T07:21:14;9.40;;;5.40;;
67191;SDS011;54120;53.504;49.426;2023-09-12T07:23:40;10.13;;;5.55;;
67191;SDS011;54120;53.504;49.426;2023-09-12T07:26:11;11.20;;;6.47;;
67191;SDS011;54120;53.504;49.426;2023-09-12T07:28:38;9.02;;;5.78;;
67191;SDS011;54120;53.504;49.426;2023-09-12T07:31:04;9.60;;;4.93;;
67191;SDS011;54120;53.504;49.426;2023-09-12T07:33:31;5.13;;;4.40;;
67191;SDS011;54120;53.504;49.426;2023-09-12T07:35:58;7.68;;;5.10;;
67191;SDS011;54120;53.504;49.426;2023-09-12T07:38:25;8.15;;;5.35;;
67191;SDS011;54120;53.504;49.426;2023-09-12T07:40:52;6.97;;;4.65;;
67191;SDS011;54120;53.504;49.426;2023-09-12T07:43:18;8.80;;;5.35;;
67191;SDS011;54120;53.504;49.426;2023-09-12T07:45:45;8.02;;;5.40;;
67191;SDS011;54120;53.504;49.426;2023-09-12T07:48:11;10.15;;;5.93;;
67191;SDS011;54120;53.504;49.426;2023-09-12T07:50:38;7.20;;;4.93;;
67191;SDS011;54120;53.504;49.426;2023-09-12T07:53:05;7.55;;;5.05;;
67191;SDS011;54120;53.504;49.426;2023-09-12T07:55:31;7.55;;;5.70;;
67191;SDS011;54120;53.504;49.426;2023-09-12T07:58:02;8.77;;;4.90;;
67191;SDS011;54120;53.504;49.426;2023-09-12T08:00:28;7.78;;;5.47;;
67191;SDS011;54120;53.504;49.426;2023-09-12T08:02:55;9.02;;;6.15;;
67191;SDS011;54120;53.504;49.426;2023-09-12T08:05:21;8.88;;;5.97;;
67191;SDS011;54120;53.504;49.426;2023-09-12T08:07:47;10.43;;;5.68;;
67191;SDS011;54120;53.504;49.426;2023-09-12T08:10:13;10.20;;;5.43;;
67191;SDS011;54120;53.504;49.426;2023-09-12T08:12:40;10.27;;;5.50;;
67191;SDS011;54120;53.504;49.426;2023-09-12T08:15:08;9.85;;;5.70;;
67191;SDS011;54120;53.504;49.426;2023-09-12T08:17:35;14.63;;;6.28;;
67191;SDS011;54120;53.504;49.426;2023-09-12T08:20:01;6.80;;;5.50;;
67191;SDS011;54120;53.504;49.426;2023-09-12T08:22:28;5.60;;;5.00;;
67191;SDS011;54120;53.504;49.426;2023-09-12T08:24:54;7.90;;;5.13;;
67191;SDS011;54120;53.504;49.426;2023-09-12T08:27:20;8.43;;;6.22;;
67191;SDS011;54120;53.504;49.426;2023-09-12T08:29:46;7.82;;;6.28;;
67191;SDS011;54120;53.504;49.426;2023-09-12T08:32:14;8.93;;;5.95;;
67191;SDS011;54120;53.504;49.426;2023-09-12T08:34:40;8.13;;;6.03;;
67191;SDS011;54120;53.504;49.426;2023-09-12T08:37:07;9.85;;;6.13;;
67191;SDS011;54120;53.504;49.426;2023-09-12T08:39:40;8.88;;;6.50;;
67191;SDS011;54120;53.504;49.426;2023-09-12T08:42:12;9.98;;;6.40;;
67191;SDS011;54120;53.504;49.426;2023-09-12T08:44:40;6.13;;;5.05;;
67191;SDS011;54120;53.504;49.426;2023-09-12T08:47:08;7.03;;;5.07;;
67191;SDS011;54120;53.504;49.426;2023-09-12T08:49:38;11.70;;;6.72;;
67191;SDS011;54120;53.504;49.426;2023-09-12T08:52:05;7.78;;;5.30;;
67191;SDS011;54120;53.504;49.426;2023-09-12T08:54:32;12.55;;;7.00;;
67191;SDS011;54120;53.504;49.426;2023-09-12T08:56:59;12.93;;;7.47;;
67191;SDS011;54120;53.504;49.426;2023-09-12T08:59:31;13.10;;;8.75;;
67191;SDS011;54120;53.504;49.426;2023-09-12T09:02:00;15.48;;;9.73;;
67191;SDS011;54120;53.504;49.426;2023-09-12T09:04:30;11.77;;;7.82;;
67191;SDS011;54120;53.504;49.426;2023-09-12T09:06:57;7.47;;;6.15;;
67191;SDS011;54120;53.504;49.426;2023-09-12T09:09:25;11.02;;;7.32;;
67191;SDS011;54120;53.504;49.426;2023-09-12T09:11:54;8.05;;;6.28;;
67191;SDS011;54120;53.504;49.426;2023-09-12T09:14:20;10.85;;;7.18;;
67191;SDS011;54120;53.504;49.426;2023-09-12T09:16:47;14.43;;;9.18;;
67191;SDS011;54120;53.504;49.426;2023-09-12T09:19:13;9.95;;;7.50;;
67191;SDS011;54120;53.504;49.426;2023-09-12T09:21:41;10.27;;;7.10;;
67191;SDS011;54120;53.504;49.426;2023-09-12T09:24:08;10.25;;;7.00;;
67191;SDS011;54120;53.504;49.426;2023-09-12T09:26:47;10.93;;;7.43;;
67191;SDS011;54120;53.504;49.426;2023-09-12T09:29:16;11.77;;;7.25;;
67191;SDS011;54120;53.504;49.426;2023-09-12T09:31:47;13.10;;;7.03;;
67191;SDS011;54120;53.504;49.426;2023-09-12T09:34:16;8.98;;;6.07;;
67191;SDS011;54120;53.504;49.426;2023-09-12T09:36:46;6.00;;;5.22;;
67191;SDS011;54120;53.504;49.426;2023-09-12T09:39:14;12.65;;;6.35;;
67191;SDS011;54120;53.504;49.426;2023-09-12T09:41:42;9.02;;;5.80;;
67191;SDS011;54120;53.504;49.426;2023-09-12T09:44:13;10.35;;;6.38;;
67191;SDS011;54120;53.504;49.426;2023-09-12T09:46:40;8.18;;;4.95;;
67191;SDS011;54120;53.504;49.426;2023-09-12T09:49:16;9.70;;;5.90;;
67191;SDS011;54120;53.504;49.426;2023-09-12T09:51:45;13.13;;;7.55;;
67191;SDS011;54120;53.504;49.426;2023-09-12T09:54:12;15.45;;;8.40;;
67191;SDS011;54120;53.504;49.426;2023-09-12T09:56:47;15.50;;;7.88;;
67191;SDS011;54120;53.504;49.426;2023-09-12T09:59:19;6.20;;;5.20;;
67191;SDS011;54120;53.504;49.426;2023-09-12T10:01:48;9.57;;;6.82;;
67191;SDS011;54120;53.504;49.426;2023-09-12T10:04:16;8.75;;;5.80;;
67191;SDS011;54120;53.504;49.426;2023-09-12T10:06:44;6.75;;;5.43;;
67191;SDS011;54120;53.504;49.426;2023-09-12T10:09:12;8.73;;;5.20;;
67191;SDS011;54120;53.504;49.426;2023-09-12T10:11:41;8.98;;;8.07;;
67191;SDS011;54120;53.504;49.426;2023-09-12T10:14:08;8.60;;;7.40;;
67191;SDS011;54120;53.504;49.426;2023-09-12T10:16:47;8.63;;;6.70;;
67191;SDS011;54120;53.504;49.426;2023-09-12T10:24:33;14.32;;;8.23;;
67191;SDS011;54120;53.504;49.426;2023-09-12T10:27:02;15.68;;;9.75;;
67191;SDS011;54120;53.504;49.426;2023-09-12T10:29:29;13.00;;;7.50;;
67191;SDS011;54120;53.504;49.426;2023-09-12T10:31:57;11.75;;;7.65;;
67191;SDS011;54120;53.504;49.426;2023-09-12T10:34:24;11.40;;;7.28;;
67191;SDS011;54120;53.504;49.426;2023-09-12T10:36:51;14.15;;;9.10;;
67191;SDS011;54120;53.504;49.426;2023-09-12T10:39:19;9.75;;;7.00;;
67191;SDS011;54120;53.504;49.426;2023-09-12T10:41:47;5.65;;;5.15;;
67191;SDS011;54120;53.504;49.426;2023-09-12T10:44:17;6.57;;;4.97;;
67191;SDS011;54120;53.504;49.426;2023-09-12T10:46:44;9.25;;;6.57;;
67191;SDS011;54120;53.504;49.426;2023-09-12T10:49:12;5.80;;;5.20;;
67191;SDS011;54120;53.504;49.426;2023-09-12T10:51:40;5.45;;;4.97;;
67191;SDS011;54120;53.504;49.426;2023-09-12T10:54:08;4.63;;;4.22;;
67191;SDS011;54120;53.504;49.426;2023-09-12T10:56:38;3.58;;;3.28;;
67191;SDS011;54120;53.504;49.426;2023-09-12T11:01:40;5.70;;;5.07;;
67191;SDS011;54120;53.504;49.426;2023-09-12T11:06:47;6.10;;;5.38;;
67191;SDS011;54120;53.504;49.426;2023-09-12T11:11:41;12.27;;;6.32;;
67191;SDS011;54120;53.504;49.426;2023-09-12T11:14:08;7.63;;;5.45;;
67191;SDS011;54120;53.504;49.426;2023-09-12T11:16:35;4.05;;;3.70;;
67191;SDS011;54120;53.504;49.426;2023-09-12T11:21:49;6.97;;;3.75;;
67191;SDS011;54120;53.504;49.426;2023-09-12T11:24:16;7.30;;;3.60;;
67191;SDS011;54120;53.504;49.426;2023-09-12T11:27:05;3.45;;;3.15;;
67191;SDS011;54120;53.504;49.426;2023-09-12T11:29:34;3.35;;;3.05;;
67191;SDS011;54120;53.504;49.426;2023-09-12T11:32:02;3.55;;;3.25;;
67191;SDS011;54120;53.504;49.426;2023-09-12T11:34:29;3.00;;;2.80;;
67191;SDS011;54120;53.504;49.426;2023-09-12T11:37:01;4.10;;;3.10;;
67191;SDS011;54120;53.504;49.426;2023-09-12T11:39:30;4.10;;;3.45;;
67191;SDS011;54120;53.504;49.426;2023-09-12T11:41:58;3.65;;;3.10;;
67191;SDS011;54120;53.504;49.426;2023-09-12T11:44:26;3.78;;;3.08;;
67191;SDS011;54120;53.504;49.426;2023-09-12T11:46:53;5.00;;;2.90;;
67191;SDS011;54120;53.504;49.426;2023-09-12T11:49:20;3.85;;;3.50;;
67191;SDS011;54120;53.504;49.426;2023-09-12T11:51:50;3.75;;;3.28;;
67191;SDS011;54120;53.504;49.426;2023-09-12T11:54:19;4.03;;;3.60;;
67191;SDS011;54120;53.504;49.426;2023-09-12T11:56:47;7.15;;;3.97;;
67191;SDS011;54120;53.504;49.426;2023-09-12T11:59:15;5.15;;;4.00;;
67191;SDS011;54120;53.504;49.426;2023-09-12T12:01:45;3.13;;;2.75;;
67191;SDS011;54120;53.504;49.426;2023-09-12T12:04:12;3.97;;;3.17;;
67191;SDS011;54120;53.504;49.426;2023-09-12T12:06:38;4.28;;;2.58;;
67191;SDS011;54120;53.504;49.426;2023-09-12T12:09:05;3.67;;;3.38;;
67191;SDS011;54120;53.504;49.426;2023-09-12T12:11:31;3.28;;;2.97;;
67191;SDS011;54120;53.504;49.426;2023-09-12T12:13:57;3.95;;;3.58;;
67191;SDS011;54120;53.504;49.426;2023-09-12T12:16:33;4.70;;;3.53;;
67191;SDS011;54120;53.504;49.426;2023-09-12T12:19:00;5.80;;;3.85;;
67191;SDS011;54120;53.504;49.426;2023-09-12T12:21:26;5.60;;;3.08;;
67191;SDS011;54120;53.504;49.426;2023-09-12T12:24:00;5.32;;;3.67;;
67191;SDS011;54120;53.504;49.426;2023-09-12T12:28:55;3.60;;;3.30;;
67191;SDS011;54120;53.504;49.426;2023-09-12T12:31:22;4.30;;;3.30;;
67191;SDS011;54120;53.504;49.426;2023-09-12T12:33:52;4.82;;;3.40;;
67191;SDS011;54120;53.504;49.426;2023-09-12T12:36:19;15.85;;;14.45;;
67191;SDS011;54120;53.504;49.426;2023-09-12T12:38:47;7.40;;;6.80;;
67191;SDS011;54120;53.504;49.426;2023-09-12T12:41:15;3.50;;;3.20;;
67191;SDS011;54120;53.504;49.426;2023-09-12T12:43:52;6.18;;;2.97;;
67191;SDS011;54120;53.504;49.426;2023-09-12T12:46:19;3.55;;;2.63;;
67191;SDS011;54120;53.504;49.426;2023-09-12T12:48:47;3.90;;;2.92;;
67191;SDS011;54120;53.504;49.426;2023-09-12T12:51:14;3.00;;;2.80;;
67191;SDS011;54120;53.504;49.426;2023-09-12T12:53:46;4.97;;;3.38;;
67191;SDS011;54120;53.504;49.426;2023-09-12T12:56:20;3.60;;;3.30;;
67191;SDS011;54120;53.504;49.426;2023-09-12T12:58:53;3.90;;;3.38;;
67191;SDS011;54120;53.504;49.426;2023-09-12T13:01:21;5.82;;;3.65;;
67191;SDS011;54120;53.504;49.426;2023-09-12T13:03:48;4.35;;;3.78;;
67191;SDS011;54120;53.504;49.426;2023-09-12T13:06:20;3.75;;;3.40;;
67191;SDS011;54120;53.504;49.426;2023-09-12T13:08:47;4.25;;;3.38;;
67191;SDS011;54120;53.504;49.426;2023-09-12T13:11:15;4.00;;;3.65;;
67191;SDS011;54120;53.504;49.426;2023-09-12T13:13:42;4.70;;;3.63;;
67191;SDS011;54120;53.504;49.426;2023-09-12T13:16:10;5.95;;;3.45;;
67191;SDS011;54120;53.504;49.426;2023-09-12T13:18:38;4.22;;;3.83;;
67191;SDS011;54120;53.504;49.426;2023-09-12T13:21:05;3.67;;;3.38;;
67191;SDS011;54120;53.504;49.426;2023-09-12T13:23:38;4.13;;;3.58;;
67191;SDS011;54120;53.504;49.426;2023-09-12T13:26:09;3.85;;;3.40;;
67191;SDS011;54120;53.504;49.426;2023-09-12T13:28:36;4.20;;;3.80;;
67191;SDS011;54120;53.504;49.426;2023-09-12T13:31:03;3.67;;;3.38;;
67191;SDS011;54120;53.504;49.426;2023-09-12T13:33:29;4.05;;;3.60;;
67191;SDS011;54120;53.504;49.426;2023-09-12T13:35:55;5.50;;;3.95;;
67191;SDS011;54120;53.504;49.426;2023-09-12T13:38:22;4.20;;;3.80;;
67191;SDS011;54120;53.504;49.426;2023-09-12T13:40:49;4.70;;;3.75;;
67191;SDS011;54120;53.504;49.426;2023-09-12T13:43:15;4.82;;;3.88;;
67191;SDS011;54120;53.504;49.426;2023-09-12T13:45:41;3.70;;;3.40;;
67191;SDS011;54120;53.504;49.426;2023-09-12T13:48:08;4.18;;;3.78;;
67191;SDS011;54120;53.504;49.426;2023-09-12T13:50:45;5.07;;;3.97;;
67191;SDS011;54120;53.504;49.426;2023-09-12T13:53:12;6.97;;;4.00;;
67191;SDS011;54120;53.504;49.426;2023-09-12T13:55:39;3.90;;;3.60;;
67191;SDS011;54120;53.504;49.426;2023-09-12T13:58:06;6.03;;;3.65;;
67191;SDS011;54120;53.504;49.426;2023-09-12T14:00:33;4.85;;;3.90;;
67191;SDS011;54120;53.504;49.426;2023-09-12T14:03:01;4.10;;;3.80;;
67191;SDS011;54120;53.504;49.426;2023-09-12T14:05:28;4.45;;;3.88;;
67191;SDS011;54120;53.504;49.426;2023-09-12T14:07:54;3.67;;;3.35;;
67191;SDS011;54120;53.504;49.426;2023-09-12T14:10:21;4.93;;;3.80;;
67191;SDS011;54120;53.504;49.426;2023-09-12T14:12:47;3.90;;;3.50;;
67191;SDS011;54120;53.504;49.426;2023-09-12T14:15:14;3.80;;;3.50;;
67191;SDS011;54120;53.504;49.426;2023-09-12T14:17:41;3.88;;;3.47;;
67191;SDS011;54120;53.504;49.426;2023-09-12T14:20:08;5.85;;;3.40;;
67191;SDS011;54120;53.504;49.426;2023-09-12T14:22:36;2.90;;;2.70;;
67191;SDS011;54120;53.504;49.426;2023-09-12T14:25:03;3.42;;;3.13;;
67191;SDS011;54120;53.504;49.426;2023-09-12T14:27:31;3.20;;;2.67;;
67191;SDS011;54120;53.504;49.426;2023-09-12T14:29:57;3.20;;;2.90;;
67191;SDS011;54120;53.504;49.426;2023-09-12T14:32:25;3.40;;;3.10;;
67191;SDS011;54120;53.504;49.426;2023-09-12T14:34:51;5.35;;;3.42;;
67191;SDS011;54120;53.504;49.426;2023-09-12T14:37:18;5.00;;;3.70;;
67191;SDS011;54120;53.504;49.426;2023-09-12T14:39:44;4.20;;;3.80;;
67191;SDS011;54120;53.504;49.426;2023-09-12T14:42:10;4.57;;;3.83;;
67191;SDS011;54120;53.504;49.426;2023-09-12T14:44:37;4.43;;;3.83;;
67191;SDS011;54120;53.504;49.426;2023-09-12T14:47:03;6.60;;;3.90;;
67191;SDS011;54120;53.504;49.426;2023-09-12T14:49:30;5.35;;;3.97;;
67191;SDS011;54120;53.504;49.426;2023-09-12T14:51:57;4.60;;;3.50;;
67191;SDS011;54120;53.504;49.426;2023-09-12T14:54:23;5.22;;;4.03;;